createdAt,value
2022-11-14T00:00:50.593Z,26.83
2022-11-14T00:04:10.754Z,25.53
2022-11-14T00:07:34.789Z,28.93
2022-11-14T00:10:54.664Z,23.53
2022-11-14T00:14:14.723Z,29.23
2022-11-14T00:17:34.653Z,26.97
2022-11-14T00:20:55.044Z,26.17
2022-11-14T00:24:15.008Z,26.10
2022-11-14T00:27:35.154Z,27.37
2022-11-14T00:30:55.325Z,28.23
2022-11-14T00:34:15.582Z,30.30
2022-11-14T00:37:35.739Z,27.87
2022-11-14T00:40:55.661Z,25.33
2022-11-14T00:44:15.552Z,27.67
2022-11-14T00:47:35.966Z,24.90
2022-11-14T00:50:56.042Z,26.80
2022-11-14T00:54:15.891Z,23.40
2022-11-14T00:57:35.704Z,24.40
2022-11-14T01:00:55.654Z,27.37
2022-11-14T01:04:15.937Z,23.40
2022-11-14T01:07:36.453Z,23.37
2022-11-14T01:10:56.543Z,24.43
2022-11-14T01:14:16.633Z,23.70
2022-11-14T01:17:36.483Z,21.50
2022-11-14T01:20:56.454Z,24.47
2022-11-14T01:24:16.412Z,22.57
2022-11-14T01:27:36.375Z,25.37
2022-11-14T01:30:56.301Z,25.07
2022-11-14T01:34:16.453Z,24.07
2022-11-14T01:37:36.289Z,24.03
2022-11-14T01:40:56.328Z,24.37
2022-11-14T01:44:17.184Z,23.93
2022-11-14T01:47:37.604Z,22.80
2022-11-14T01:50:59.559Z,25.13
2022-11-14T01:54:24.149Z,23.80
2022-11-14T01:57:46.024Z,24.60
2022-11-14T02:01:06.547Z,24.70
2022-11-14T02:04:28.912Z,22.23
2022-11-14T02:07:49.214Z,22.43
2022-11-14T02:11:12.555Z,21.13
2022-11-14T02:14:33.721Z,22.83
2022-11-14T02:17:54.194Z,22.90
2022-11-14T02:21:14.491Z,23.43
2022-11-14T02:24:34.625Z,24.23
2022-11-14T02:27:55.880Z,24.03
2022-11-14T02:31:16.160Z,25.67
2022-11-14T02:34:36.688Z,21.87
2022-11-14T02:37:56.868Z,27.27
2022-11-14T02:41:17.111Z,23.10
2022-11-14T02:44:37.133Z,26.17
2022-11-14T02:47:57.191Z,22.90
2022-11-14T02:51:17.499Z,22.17
2022-11-14T02:54:37.977Z,20.87
2022-11-14T02:57:58.332Z,27.53
2022-11-14T03:01:21.244Z,23.17
2022-11-14T03:04:42.081Z,25.70
2022-11-14T03:08:02.213Z,24.53
2022-11-14T03:11:22.248Z,24.90
2022-11-14T03:14:42.329Z,24.73
2022-11-14T03:18:02.321Z,22.90
2022-11-14T03:21:23.088Z,21.47
2022-11-14T03:24:42.856Z,31.90
2022-11-14T03:28:02.869Z,28.40
2022-11-14T03:31:22.640Z,27.27
2022-11-14T03:34:43.245Z,26.27
2022-11-14T03:38:03.414Z,25.83
2022-11-14T03:41:23.791Z,25.80
2022-11-14T03:44:43.795Z,26.90
2022-11-14T03:48:04.535Z,29.97
2022-11-14T03:51:25.416Z,26.17
2022-11-14T03:54:48.136Z,23.03
2022-11-14T03:58:10.413Z,28.63
2022-11-14T04:01:30.311Z,26.97
2022-11-14T04:04:50.100Z,32.70
2022-11-14T04:08:11.760Z,25.63
2022-11-14T04:11:32.221Z,26.67
2022-11-14T04:14:52.446Z,24.17
2022-11-14T04:18:12.513Z,29.80
2022-11-14T04:21:32.623Z,28.20
2022-11-14T04:24:52.579Z,24.93
2022-11-14T04:28:13.094Z,28.67
2022-11-14T04:31:33.097Z,26.10
2022-11-14T04:34:53.235Z,30.80
2022-11-14T04:38:13.315Z,29.03
2022-11-14T04:41:33.211Z,27.63
2022-11-14T04:44:53.055Z,31.37
2022-11-14T04:48:13.441Z,36.70
2022-11-14T04:51:33.477Z,31.90
2022-11-14T04:54:53.384Z,29.57
2022-11-14T04:58:13.249Z,35.57
2022-11-14T05:01:33.365Z,30.63
2022-11-14T05:04:53.883Z,35.03
2022-11-14T05:08:14.196Z,41.20
2022-11-14T05:11:34.501Z,54.83
2022-11-14T05:14:54.468Z,38.77
2022-11-14T05:18:14.444Z,47.60
2022-11-14T05:21:34.679Z,42.27
2022-11-14T05:24:54.882Z,46.23
2022-11-14T05:28:15.421Z,40.00
2022-11-14T05:31:35.295Z,35.30
2022-11-14T05:34:55.641Z,39.67
2022-11-14T05:38:16.221Z,41.90
2022-11-14T05:41:36.689Z,38.97
2022-11-14T05:44:56.653Z,45.67
2022-11-14T05:48:16.563Z,40.93
2022-11-14T05:51:36.352Z,41.47
2022-11-14T05:54:56.410Z,36.60
2022-11-14T05:58:16.366Z,41.73
2022-11-14T06:01:36.434Z,42.23
2022-11-14T06:04:56.799Z,37.40
2022-11-14T06:08:16.700Z,40.10
2022-11-14T06:11:36.517Z,39.93
2022-11-14T06:14:56.522Z,44.57
2022-11-14T06:18:16.614Z,39.77
2022-11-14T06:21:36.998Z,44.33
2022-11-14T06:24:57.007Z,41.57
2022-11-14T06:28:16.897Z,47.67
2022-11-14T06:31:37.441Z,55.83
2022-11-14T06:34:57.981Z,47.20
2022-11-14T06:38:17.936Z,53.30
2022-11-14T06:41:37.906Z,56.60
2022-11-14T06:44:57.643Z,64.67
2022-11-14T06:48:17.784Z,74.43
2022-11-14T06:51:37.915Z,77.63
2022-11-14T06:54:57.848Z,43.23
2022-11-14T06:58:18.461Z,65.60
2022-11-14T07:01:38.461Z,64.57
2022-11-14T07:04:58.609Z,53.93
2022-11-14T07:08:21.249Z,45.23
2022-11-14T07:11:41.572Z,43.53
2022-11-14T07:15:01.565Z,41.23
2022-11-14T07:18:21.453Z,43.97
2022-11-14T07:21:41.284Z,46.00
2022-11-14T07:25:01.552Z,36.20
2022-11-14T07:28:21.590Z,50.57
2022-11-14T07:31:41.926Z,27.13
2022-11-14T07:35:02.638Z,31.77
2022-11-14T07:38:22.848Z,31.07
2022-11-14T07:41:43.263Z,50.07
2022-11-14T07:45:03.520Z,81.60
2022-11-14T07:48:23.655Z,57.40
2022-11-14T07:51:43.897Z,54.67
2022-11-14T07:55:03.821Z,48.67
2022-11-14T07:58:23.955Z,38.50
2022-11-14T08:01:44.325Z,39.53
2022-11-14T08:05:04.764Z,31.03
2022-11-14T08:08:24.898Z,37.60
2022-11-14T08:11:47.795Z,33.47
2022-11-14T08:15:08.873Z,24.67
2022-11-14T08:18:29.326Z,36.63
2022-11-14T08:21:49.931Z,26.40
2022-11-14T08:25:09.864Z,28.57
2022-11-14T08:28:30.807Z,34.43
2022-11-14T08:31:53.513Z,38.97
2022-11-14T08:35:17.952Z,33.77
2022-11-14T08:38:38.431Z,38.70
2022-11-14T08:41:58.623Z,35.97
2022-11-14T08:45:18.557Z,41.57
2022-11-14T08:48:38.735Z,39.13
2022-11-14T08:51:58.988Z,46.27
2022-11-14T08:55:20.217Z,39.20
2022-11-14T08:58:40.368Z,33.57
2022-11-14T09:02:00.588Z,27.10
2022-11-14T09:05:21.473Z,25.97
2022-11-14T09:08:41.639Z,28.30
2022-11-14T09:12:02.098Z,30.07
2022-11-14T09:15:22.363Z,26.73
2022-11-14T09:18:42.439Z,27.37
2022-11-14T09:22:03.262Z,23.10
2022-11-14T09:25:23.352Z,22.23
2022-11-14T09:28:43.953Z,18.80
2022-11-14T09:32:04.402Z,18.57
2022-11-14T09:35:24.648Z,23.53
2022-11-14T09:38:44.963Z,19.03
2022-11-14T09:42:17.722Z,22.80
2022-11-14T09:45:39.311Z,22.70
2022-11-14T09:48:59.914Z,20.37
2022-11-14T09:52:26.041Z,17.73
2022-11-14T09:55:46.642Z,21.30
2022-11-14T09:59:09.475Z,21.73
2022-11-14T10:02:29.334Z,22.93
2022-11-14T10:05:49.817Z,28.13
2022-11-14T10:09:30.152Z,22.03
2022-11-14T10:13:11.015Z,25.63
2022-11-14T10:16:31.272Z,24.83
2022-11-14T10:20:03.314Z,21.50
2022-11-14T10:23:35.798Z,22.13
2022-11-14T10:27:02.802Z,22.47
2022-11-14T10:30:23.360Z,22.37
2022-11-14T10:34:05.817Z,24.00
2022-11-14T10:37:32.322Z,27.33
2022-11-14T10:40:59.341Z,21.33
2022-11-14T10:44:22.893Z,21.00
2022-11-14T10:47:51.721Z,19.63
2022-11-14T10:51:18.514Z,24.97
2022-11-14T10:54:38.626Z,24.87
2022-11-14T10:57:58.680Z,20.97
2022-11-14T11:01:37.531Z,22.13
2022-11-14T11:05:04.571Z,23.33
2022-11-14T11:08:44.636Z,19.57
2022-11-14T11:12:05.801Z,19.50
2022-11-14T11:15:39.098Z,20.97
2022-11-14T11:19:22.003Z,36.70
2022-11-14T11:22:43.370Z,24.20
2022-11-14T11:26:09.554Z,20.10
2022-11-14T11:29:29.921Z,20.87
2022-11-14T11:32:49.795Z,20.97
2022-11-14T11:36:15.110Z,17.77
2022-11-14T11:39:40.376Z,20.27
2022-11-14T11:47:01.263Z,31.13
2022-11-14T11:50:24.307Z,21.10
2022-11-14T11:53:46.946Z,16.80
2022-11-14T11:57:18.565Z,17.23
2022-11-14T12:00:41.899Z,15.40
2022-11-14T12:04:02.367Z,17.13
2022-11-14T12:07:24.373Z,18.63
2022-11-14T12:10:45.875Z,14.57
2022-11-14T12:14:24.956Z,15.67
2022-11-14T12:17:53.709Z,16.10
2022-11-14T12:21:19.784Z,18.00
2022-11-14T12:24:58.717Z,19.40
2022-11-14T12:28:37.972Z,17.77
2022-11-14T12:32:03.037Z,16.40
2022-11-14T12:35:27.961Z,17.40
2022-11-14T12:38:53.799Z,15.90
2022-11-14T12:42:19.316Z,15.57
2022-11-14T12:45:42.300Z,14.13
2022-11-14T12:49:22.086Z,15.80
2022-11-14T12:52:45.534Z,17.23
2022-11-14T12:56:05.940Z,18.00
2022-11-14T12:59:39.472Z,17.03
2022-11-14T13:03:09.544Z,21.57
2022-11-14T13:06:44.520Z,22.23
2022-11-14T13:10:27.978Z,20.80
2022-11-14T13:14:20.498Z,21.63
2022-11-14T13:17:59.557Z,19.30
2022-11-14T13:21:45.315Z,24.30
2022-11-14T13:25:11.967Z,26.07
2022-11-14T13:28:38.609Z,22.87
2022-11-14T13:31:58.561Z,22.97
2022-11-14T13:35:32.343Z,27.50
2022-11-14T13:38:55.663Z,26.27
2022-11-14T13:42:16.058Z,24.83
2022-11-14T13:45:42.571Z,26.57
2022-11-14T13:49:06.125Z,24.30
2022-11-14T13:52:28.330Z,26.70
2022-11-14T13:56:04.686Z,25.53
2022-11-14T13:59:24.798Z,23.50
2022-11-14T14:02:45.167Z,24.67
2022-11-14T14:06:34.715Z,27.00
2022-11-14T14:10:06.928Z,26.13
2022-11-14T14:13:30.277Z,27.73
2022-11-14T14:16:58.960Z,28.73
2022-11-14T14:20:31.387Z,29.87
2022-11-14T14:24:02.488Z,31.53
2022-11-14T14:27:22.638Z,38.77
2022-11-14T14:31:00.367Z,32.77
2022-11-14T14:34:20.603Z,34.10
2022-11-14T14:37:49.735Z,35.70
2022-11-14T14:41:11.128Z,35.57
2022-11-14T14:44:40.647Z,40.03
2022-11-14T14:48:05.710Z,39.70
2022-11-14T14:51:35.968Z,40.80
2022-11-14T14:54:56.566Z,42.27
2022-11-14T14:58:27.226Z,46.43
2022-11-14T15:01:47.996Z,47.20
2022-11-14T15:05:08.572Z,51.73
2022-11-14T15:08:31.188Z,51.23
2022-11-14T15:11:56.392Z,52.63
2022-11-14T15:15:16.956Z,50.57
2022-11-14T15:18:37.596Z,52.00
2022-11-14T15:22:05.616Z,53.23
2022-11-14T15:25:25.489Z,49.80
2022-11-14T15:28:46.073Z,49.50
2022-11-14T15:32:05.965Z,51.53
2022-11-14T15:35:27.847Z,51.13
2022-11-14T15:39:01.857Z,55.30
2022-11-14T15:42:23.503Z,57.60
2022-11-14T15:45:43.949Z,49.67
2022-11-14T15:49:16.021Z,55.80
2022-11-14T15:52:37.807Z,54.70
2022-11-14T15:55:58.917Z,60.20
2022-11-14T15:59:19.051Z,59.20
2022-11-14T16:02:46.204Z,61.40
2022-11-14T16:06:06.658Z,63.47
2022-11-14T16:09:26.943Z,68.23
2022-11-14T16:12:52.212Z,68.40
2022-11-14T16:16:12.879Z,64.43
2022-11-14T16:19:33.163Z,64.13
2022-11-14T16:22:53.598Z,67.57
2022-11-14T16:26:13.728Z,64.67
2022-11-14T16:29:33.688Z,63.20
2022-11-14T16:32:55.986Z,79.90
2022-11-14T16:36:16.304Z,74.97
2022-11-14T16:39:38.114Z,62.50
2022-11-14T16:43:00.933Z,66.77
2022-11-14T16:46:21.709Z,68.40
2022-11-14T16:49:41.527Z,72.50
2022-11-14T16:53:01.379Z,75.33
2022-11-14T16:56:21.787Z,67.90
2022-11-14T16:59:41.989Z,74.33
2022-11-14T17:03:02.377Z,73.73
2022-11-14T17:06:22.273Z,74.57
2022-11-14T17:09:42.492Z,73.17
2022-11-14T17:13:02.245Z,81.10
2022-11-14T17:16:22.196Z,82.40
2022-11-14T17:19:46.123Z,78.53
2022-11-14T17:23:06.840Z,93.43
2022-11-14T17:26:27.689Z,87.87
2022-11-14T17:29:47.858Z,74.67
2022-11-14T17:33:07.935Z,76.00
2022-11-14T17:36:29.414Z,75.63
2022-11-14T17:39:49.349Z,73.57
2022-11-14T17:43:09.369Z,76.10
2022-11-14T17:46:30.325Z,79.50
2022-11-14T17:49:50.405Z,78.60
2022-11-14T17:53:10.732Z,81.40
2022-11-14T17:56:31.156Z,82.43
2022-11-14T17:59:51.177Z,83.90
2022-11-14T18:03:11.104Z,80.10
2022-11-14T18:06:31.019Z,76.63
2022-11-14T18:09:51.213Z,84.43
2022-11-14T18:13:11.164Z,79.87
2022-11-14T18:16:50.587Z,82.00
2022-11-14T18:20:11.309Z,60.00
2022-11-14T18:23:31.579Z,53.20
2022-11-14T18:26:52.344Z,58.60
2022-11-14T18:30:39.781Z,62.40
2022-11-14T18:33:53.397Z,52.70
2022-11-14T18:37:13.292Z,62.53
2022-11-14T18:40:33.280Z,51.03
2022-11-14T18:43:58.191Z,52.63
2022-11-14T18:47:21.112Z,41.13
2022-11-14T18:50:41.478Z,38.77
2022-11-14T18:54:01.645Z,42.47
2022-11-14T18:57:21.577Z,42.63
2022-11-14T19:00:41.733Z,44.70
2022-11-14T19:04:03.744Z,45.47
2022-11-14T19:07:25.343Z,50.10
2022-11-14T19:10:45.680Z,66.23
2022-11-14T19:14:06.229Z,50.13
2022-11-14T19:17:26.481Z,42.03
2022-11-14T19:20:59.814Z,38.83
2022-11-14T19:24:20.357Z,36.63
2022-11-14T19:27:40.253Z,38.13
2022-11-14T19:31:01.296Z,36.97
2022-11-14T19:34:21.737Z,34.43
2022-11-14T19:37:41.734Z,32.73
2022-11-14T19:41:08.821Z,41.40
2022-11-14T19:44:29.045Z,37.87
2022-11-14T19:47:48.914Z,37.03
2022-11-14T19:51:12.940Z,45.47
2022-11-14T19:54:33.160Z,36.67
2022-11-14T19:57:53.292Z,46.63
2022-11-14T20:01:14.804Z,37.40
2022-11-14T20:04:37.897Z,44.80
2022-11-14T20:07:58.174Z,37.23
2022-11-14T20:11:18.804Z,37.97
2022-11-14T20:14:48.060Z,42.53
2022-11-14T20:18:09.367Z,37.77
2022-11-14T20:21:34.018Z,35.53
2022-11-14T20:24:54.268Z,48.90
2022-11-14T20:28:14.681Z,38.70
2022-11-14T20:31:45.678Z,58.57
2022-11-14T20:35:06.203Z,42.00
2022-11-14T20:38:28.222Z,39.87
2022-11-14T20:41:49.970Z,35.17
2022-11-14T20:45:17.432Z,45.57
2022-11-14T20:48:38.031Z,38.07
2022-11-14T20:51:58.567Z,29.13
2022-11-14T20:55:19.373Z,37.83
2022-11-14T20:58:40.474Z,37.33
2022-11-14T21:02:05.560Z,35.77
2022-11-14T21:05:25.680Z,38.27
2022-11-14T21:08:47.812Z,32.17
2022-11-14T21:12:09.944Z,34.83
2022-11-14T21:15:30.261Z,37.00
2022-11-14T21:18:54.224Z,34.17
2022-11-14T21:22:14.645Z,38.60
2022-11-14T21:25:35.560Z,39.07
2022-11-14T21:28:57.246Z,36.83
2022-11-14T21:32:17.549Z,40.57
2022-11-14T21:35:37.549Z,36.63
2022-11-14T21:38:59.313Z,35.83
2022-11-14T21:42:19.509Z,35.30
2022-11-14T21:45:42.607Z,37.40
2022-11-14T21:49:02.621Z,57.13
2022-11-14T21:52:22.627Z,32.03
2022-11-14T21:55:43.656Z,32.67
2022-11-14T21:59:14.433Z,29.60
2022-11-14T22:02:53.530Z,29.27
2022-11-14T22:06:13.713Z,24.53
2022-11-14T22:09:34.203Z,25.33
2022-11-14T22:12:54.251Z,27.27
2022-11-14T22:16:17.680Z,27.83
2022-11-14T22:19:37.556Z,25.27
2022-11-14T22:22:57.487Z,27.70
2022-11-14T22:26:17.593Z,29.00
2022-11-14T22:29:37.457Z,26.30
2022-11-14T22:32:59.081Z,22.80
2022-11-14T22:36:20.228Z,24.03
2022-11-14T22:39:40.341Z,24.37
2022-11-14T22:43:00.467Z,24.03
2022-11-14T22:46:20.740Z,27.00
2022-11-14T22:49:41.199Z,24.13
2022-11-14T22:53:01.201Z,22.33
2022-11-14T22:56:22.372Z,27.20
2022-11-14T22:59:42.490Z,26.00
2022-11-14T23:03:02.665Z,29.13
2022-11-14T23:06:23.667Z,26.43
2022-11-14T23:09:43.829Z,31.33
2022-11-14T23:13:04.202Z,29.90
2022-11-14T23:16:26.131Z,29.87
2022-11-14T23:19:46.278Z,30.67
2022-11-14T23:23:06.336Z,32.63
2022-11-14T23:26:26.849Z,28.83
2022-11-14T23:29:46.959Z,28.63
2022-11-14T23:33:06.846Z,28.10
2022-11-14T23:36:27.184Z,28.07
2022-11-14T23:39:47.404Z,26.77
2022-11-14T23:43:07.408Z,29.30
2022-11-14T23:46:27.696Z,29.00
2022-11-14T23:49:47.591Z,33.93
2022-11-14T23:53:08.000Z,30.30
2022-11-14T23:56:27.871Z,24.30
2022-11-14T23:59:48.104Z,25.17
